createdAt,value
2023-05-10T00:02:09.671Z,43.17
2023-05-10T00:04:36.631Z,43.41
2023-05-10T00:07:03.444Z,43.59
2023-05-10T00:09:30.418Z,43.83
2023-05-10T00:11:59.531Z,44.11
2023-05-10T00:14:26.373Z,44.34
2023-05-10T00:16:53.468Z,44.59
2023-05-10T00:19:20.657Z,44.75
2023-05-10T00:21:47.637Z,44.99
2023-05-10T00:24:14.521Z,45.31
2023-05-10T00:26:43.344Z,46.23
2023-05-10T00:29:10.505Z,46.70
2023-05-10T00:31:37.460Z,46.80
2023-05-10T00:34:04.501Z,46.66
2023-05-10T00:36:32.286Z,46.76
2023-05-10T00:38:59.641Z,46.96
2023-05-10T00:41:26.546Z,47.92
2023-05-10T00:43:54.640Z,48.95
2023-05-10T00:46:21.637Z,49.36
2023-05-10T00:48:48.725Z,49.81
2023-05-10T00:51:15.618Z,50.03
2023-05-10T00:53:42.612Z,50.13
2023-05-10T00:56:09.660Z,50.18
2023-05-10T00:58:36.720Z,50.24
2023-05-10T01:01:03.797Z,50.23
2023-05-10T01:03:30.774Z,50.27
2023-05-10T01:05:57.851Z,50.28
2023-05-10T01:08:25.615Z,50.17
2023-05-10T01:10:53.629Z,50.25
2023-05-10T01:13:32.631Z,50.55
2023-05-10T01:16:00.974Z,50.78
2023-05-10T01:18:27.963Z,50.97
2023-05-10T01:21:20.296Z,50.98
2023-05-10T01:24:08.527Z,50.77
2023-05-10T01:26:36.406Z,50.58
2023-05-10T01:29:13.392Z,50.35
2023-05-10T01:32:21.441Z,50.25
2023-05-10T01:34:54.476Z,50.05
2023-05-10T01:37:23.043Z,49.87
2023-05-10T01:39:56.564Z,50.16
2023-05-10T01:42:29.648Z,50.93
2023-05-10T01:45:03.572Z,51.51
2023-05-10T01:47:35.643Z,51.69
2023-05-10T01:50:04.433Z,51.79
2023-05-10T01:52:39.142Z,51.70
2023-05-10T01:55:07.633Z,51.65
2023-05-10T01:57:37.261Z,51.58
2023-05-10T02:00:05.620Z,51.55
2023-05-10T02:02:43.388Z,51.58
2023-05-10T02:05:11.958Z,51.57
2023-05-10T02:07:38.847Z,51.46
2023-05-10T02:10:08.901Z,51.37
2023-05-10T02:12:40.919Z,51.41
2023-05-10T02:15:08.577Z,51.55
2023-05-10T02:17:38.687Z,51.65
2023-05-10T02:20:09.121Z,51.66
2023-05-10T02:22:36.604Z,51.81
2023-05-10T02:25:03.631Z,51.96
2023-05-10T02:27:30.628Z,52.20
2023-05-10T02:29:57.399Z,52.30
2023-05-10T02:32:25.614Z,52.48
2023-05-10T02:34:53.106Z,52.60
2023-05-10T02:37:20.954Z,52.91
2023-05-10T02:39:51.449Z,53.42
2023-05-10T02:42:19.767Z,53.57
2023-05-10T02:44:47.496Z,53.47
2023-05-10T02:47:15.855Z,53.38
2023-05-10T02:49:42.773Z,53.39
2023-05-10T02:52:10.505Z,53.37
2023-05-10T02:54:56.792Z,53.63
2023-05-10T02:57:27.819Z,53.77
2023-05-10T02:59:54.767Z,53.75
2023-05-10T03:02:21.739Z,53.78
2023-05-10T03:04:48.634Z,53.46
2023-05-10T03:07:15.608Z,53.59
2023-05-10T03:09:42.484Z,53.79
2023-05-10T03:12:33.786Z,53.92
2023-05-10T03:15:07.480Z,53.88
2023-05-10T03:17:42.605Z,53.64
2023-05-10T03:20:12.966Z,53.66
2023-05-10T03:22:44.193Z,53.31
2023-05-10T03:25:12.144Z,53.02
2023-05-10T03:27:44.208Z,53.08
2023-05-10T03:30:12.853Z,53.10
2023-05-10T03:32:39.846Z,52.86
2023-05-10T03:35:10.687Z,52.53
2023-05-10T03:37:37.791Z,52.45
2023-05-10T03:40:05.530Z,52.48
2023-05-10T03:42:33.466Z,52.41
2023-05-10T03:45:00.497Z,52.44
2023-05-10T03:47:27.317Z,52.29
2023-05-10T03:49:54.308Z,52.20
2023-05-10T03:52:21.480Z,52.20
2023-05-10T03:54:48.542Z,52.19
2023-05-10T03:57:15.767Z,52.15
2023-05-10T03:59:42.702Z,51.98
2023-05-10T04:02:09.673Z,50.24
2023-05-10T04:04:37.416Z,48.80
2023-05-10T04:07:04.577Z,48.11
2023-05-10T04:09:31.507Z,47.23
2023-05-10T04:11:59.945Z,46.45
2023-05-10T04:14:26.951Z,45.60
2023-05-10T04:16:53.875Z,44.70
2023-05-10T04:19:21.269Z,44.31
2023-05-10T04:21:48.138Z,44.29
2023-05-10T04:24:14.968Z,43.84
2023-05-10T04:26:42.080Z,43.78
2023-05-10T04:29:08.882Z,43.44
2023-05-10T04:31:37.411Z,43.63
2023-05-10T04:34:04.330Z,43.81
2023-05-10T04:36:31.193Z,43.62
2023-05-10T04:38:58.133Z,43.53
2023-05-10T04:41:26.396Z,43.44
2023-05-10T04:43:53.252Z,43.30
2023-05-10T04:46:20.159Z,43.21
2023-05-10T04:48:47.137Z,42.37
2023-05-10T04:51:14.199Z,42.27
2023-05-10T04:53:42.967Z,42.39
2023-05-10T04:56:11.725Z,41.61
2023-05-10T04:58:38.602Z,41.07
2023-05-10T05:01:12.157Z,40.75
2023-05-10T05:03:39.339Z,40.78
2023-05-10T05:06:06.559Z,40.62
2023-05-10T05:08:33.380Z,40.82
2023-05-10T05:11:00.598Z,40.86
2023-05-10T05:13:27.782Z,40.39
2023-05-10T05:15:54.764Z,40.29
2023-05-10T05:18:21.681Z,40.46
2023-05-10T05:20:48.499Z,39.92
2023-05-10T05:23:15.398Z,39.72
2023-05-10T05:25:43.203Z,39.97
2023-05-10T05:28:10.061Z,40.21
2023-05-10T05:30:36.988Z,39.62
2023-05-10T05:33:04.181Z,39.38
2023-05-10T05:35:31.234Z,39.67
2023-05-10T05:37:58.432Z,39.93
2023-05-10T05:40:25.480Z,39.90
2023-05-10T05:42:52.431Z,39.60
2023-05-10T05:45:19.500Z,39.96
2023-05-10T05:47:46.681Z,40.05
2023-05-10T05:50:13.750Z,39.45
2023-05-10T05:52:40.630Z,39.14
2023-05-10T05:55:08.090Z,39.47
2023-05-10T05:57:34.910Z,39.59
2023-05-10T06:00:01.732Z,39.43
2023-05-10T06:02:28.613Z,38.66
2023-05-10T06:04:55.661Z,38.40
2023-05-10T06:07:22.723Z,38.46
2023-05-10T06:09:49.536Z,38.58
2023-05-10T06:12:16.415Z,38.42
2023-05-10T06:14:43.335Z,38.16
2023-05-10T06:17:10.347Z,38.22
2023-05-10T06:19:37.862Z,38.51
2023-05-10T06:22:04.711Z,38.30
2023-05-10T06:24:31.631Z,38.00
2023-05-10T06:27:01.129Z,37.60
2023-05-10T06:29:27.960Z,37.62
2023-05-10T06:31:55.311Z,37.03
2023-05-10T06:34:22.136Z,36.90
2023-05-10T06:36:48.932Z,36.43
2023-05-10T06:39:16.072Z,36.49
2023-05-10T06:41:43.121Z,36.93
2023-05-10T06:44:10.478Z,36.46
2023-05-10T06:46:37.717Z,36.36
2023-05-10T06:49:05.652Z,36.11
2023-05-10T06:51:32.536Z,36.37
2023-05-10T06:53:59.421Z,36.43
2023-05-10T06:56:26.274Z,36.37
2023-05-10T06:58:53.125Z,35.70
2023-05-10T07:01:20.235Z,35.43
2023-05-10T07:03:47.258Z,35.70
2023-05-10T07:06:29.495Z,36.22
2023-05-10T07:09:00.563Z,35.83
2023-05-10T07:11:27.975Z,35.39
2023-05-10T07:13:54.915Z,34.75
2023-05-10T07:16:22.863Z,34.94
2023-05-10T07:18:51.478Z,34.78
2023-05-10T07:21:18.558Z,34.26
2023-05-10T07:23:45.599Z,33.99
2023-05-10T07:26:12.756Z,33.96
2023-05-10T07:28:40.183Z,33.80
2023-05-10T07:31:07.279Z,33.48
2023-05-10T07:33:34.298Z,33.45
2023-05-10T07:36:01.529Z,33.61
2023-05-10T07:38:28.551Z,33.44
2023-05-10T07:40:55.514Z,32.76
2023-05-10T07:43:22.359Z,33.17
2023-05-10T07:45:49.635Z,33.49
2023-05-10T07:48:16.614Z,33.76
2023-05-10T07:50:43.436Z,33.41
2023-05-10T07:53:10.656Z,33.30
2023-05-10T07:55:37.518Z,33.16
2023-05-10T07:58:04.606Z,32.48
2023-05-10T08:00:31.810Z,32.79
2023-05-10T08:02:58.851Z,32.49
2023-05-10T08:05:25.995Z,32.12
2023-05-10T08:07:52.835Z,32.06
2023-05-10T08:10:19.888Z,31.67
2023-05-10T08:12:46.835Z,31.51
2023-05-10T08:15:13.797Z,31.36
2023-05-10T08:17:40.884Z,31.65
2023-05-10T08:20:09.198Z,31.43
2023-05-10T08:22:36.161Z,31.31
2023-05-10T08:25:03.044Z,30.89
2023-05-10T08:27:29.934Z,30.43
2023-05-10T08:29:56.883Z,30.56
2023-05-10T08:32:23.754Z,30.31
2023-05-10T08:34:50.569Z,30.73
2023-05-10T08:37:18.027Z,30.43
2023-05-10T08:39:44.890Z,30.48
2023-05-10T08:42:11.822Z,30.75
2023-05-10T08:44:39.122Z,30.13
2023-05-10T08:47:07.897Z,30.06
2023-05-10T08:49:35.156Z,29.98
2023-05-10T08:52:05.138Z,30.08
2023-05-10T08:54:35.561Z,30.21
2023-05-10T08:57:02.660Z,30.60
2023-05-10T09:00:38.848Z,29.96
2023-05-10T09:03:05.983Z,30.43
2023-05-10T09:05:33.183Z,30.85
2023-05-10T09:08:01.707Z,31.13
2023-05-10T09:10:29.224Z,30.96
2023-05-10T09:12:59.198Z,31.04
2023-05-10T09:15:26.628Z,31.54
2023-05-10T09:17:53.586Z,31.92
2023-05-10T09:20:20.729Z,32.37
2023-05-10T09:22:47.663Z,32.57
2023-05-10T09:25:15.765Z,31.83
2023-05-10T09:27:46.336Z,31.14
2023-05-10T09:30:26.799Z,31.08
2023-05-10T09:32:53.986Z,30.45
2023-05-10T09:35:22.558Z,30.27
2023-05-10T09:37:50.789Z,30.36
2023-05-10T09:40:19.012Z,30.57
2023-05-10T09:42:59.561Z,30.60
2023-05-10T09:45:30.599Z,30.32
2023-05-10T09:47:57.755Z,29.77
2023-05-10T09:50:24.895Z,29.52
2023-05-10T09:52:54.130Z,29.00
2023-05-10T09:55:25.695Z,28.81
2023-05-10T09:58:02.329Z,28.82
2023-05-10T10:00:29.415Z,28.71
2023-05-10T10:03:00.367Z,29.13
2023-05-10T10:05:31.447Z,29.22
2023-05-10T10:07:58.690Z,29.00
2023-05-10T10:10:26.478Z,29.40
2023-05-10T10:12:53.820Z,29.02
2023-05-10T10:15:22.185Z,28.25
2023-05-10T10:17:50.336Z,28.53
2023-05-10T10:20:18.148Z,28.54
2023-05-10T10:22:45.561Z,28.75
2023-05-10T10:25:16.924Z,28.58
2023-05-10T10:27:56.698Z,28.12
2023-05-10T10:30:47.201Z,27.50
2023-05-10T10:33:42.310Z,27.26
2023-05-10T10:36:09.236Z,27.59
2023-05-10T10:39:04.018Z,27.28
2023-05-10T10:41:39.288Z,27.16
2023-05-10T10:44:32.138Z,26.68
2023-05-10T10:47:19.636Z,26.27
2023-05-10T10:49:59.008Z,26.26
2023-05-10T10:52:31.046Z,26.59
2023-05-10T10:55:06.303Z,27.04
2023-05-10T10:57:34.627Z,26.81
2023-05-10T11:00:21.807Z,26.76
2023-05-10T11:02:50.476Z,27.04
2023-05-10T11:05:27.077Z,26.86
2023-05-10T11:07:58.044Z,26.64
2023-05-10T11:10:25.722Z,26.05
2023-05-10T11:13:12.963Z,26.01
2023-05-10T11:15:40.468Z,26.38
2023-05-10T11:18:33.684Z,26.85
2023-05-10T11:21:04.347Z,27.15
2023-05-10T11:23:41.484Z,26.83
2023-05-10T11:26:10.648Z,25.76
2023-05-10T11:28:47.980Z,26.06
2023-05-10T11:31:16.084Z,25.98
2023-05-10T11:33:51.315Z,25.06
2023-05-10T11:36:19.834Z,24.29
2023-05-10T11:38:47.118Z,24.21
2023-05-10T11:41:14.157Z,24.08
2023-05-10T11:43:41.379Z,24.10
2023-05-10T11:46:14.603Z,24.33
2023-05-10T11:48:42.040Z,24.67
2023-05-10T11:51:09.130Z,24.57
2023-05-10T11:53:36.005Z,25.10
2023-05-10T11:56:10.232Z,25.23
2023-05-10T11:58:38.034Z,24.79
2023-05-10T12:01:06.497Z,24.01
2023-05-10T12:03:33.529Z,23.12
2023-05-10T12:06:01.700Z,23.09
2023-05-10T12:08:29.444Z,23.27
2023-05-10T12:11:07.077Z,23.14
2023-05-10T12:13:33.912Z,22.77
2023-05-10T12:16:01.675Z,22.50
2023-05-10T12:18:28.896Z,22.74
2023-05-10T12:20:55.853Z,23.08
2023-05-10T12:23:22.724Z,23.55
2023-05-10T12:25:49.751Z,24.18
2023-05-10T12:28:16.544Z,24.60
2023-05-10T12:30:43.437Z,25.19
2023-05-10T12:33:12.091Z,25.19
2023-05-10T12:35:53.013Z,25.31
2023-05-10T12:38:36.989Z,25.03
2023-05-10T12:41:05.346Z,25.05
2023-05-10T12:43:32.611Z,25.34
2023-05-10T12:45:59.671Z,25.78
2023-05-10T12:48:26.797Z,25.98
2023-05-10T12:50:53.651Z,25.63
2023-05-10T12:53:20.853Z,25.42
2023-05-10T12:55:47.719Z,25.92
2023-05-10T12:58:31.408Z,25.67
2023-05-10T13:01:01.822Z,24.90
2023-05-10T13:03:28.826Z,25.15
2023-05-10T13:05:55.650Z,24.87
2023-05-10T13:08:22.587Z,25.09
2023-05-10T13:10:49.687Z,24.99
2023-05-10T13:13:16.572Z,25.09
2023-05-10T13:15:43.567Z,24.77
2023-05-10T13:18:10.657Z,24.56
2023-05-10T13:20:37.768Z,23.48
2023-05-10T13:23:04.821Z,23.24
2023-05-10T13:25:31.950Z,23.04
2023-05-10T13:27:58.802Z,23.31
2023-05-10T13:30:25.677Z,22.81
2023-05-10T13:32:52.543Z,22.90
2023-05-10T13:35:19.424Z,23.71
2023-05-10T13:37:46.437Z,24.03
2023-05-10T13:40:13.461Z,23.90
2023-05-10T13:42:40.791Z,24.13
2023-05-10T13:45:08.271Z,23.89
2023-05-10T13:47:35.205Z,24.28
2023-05-10T13:50:02.226Z,24.17
2023-05-10T13:52:29.175Z,23.76
2023-05-10T13:54:56.327Z,23.38
2023-05-10T13:57:24.181Z,22.15
2023-05-10T13:59:51.460Z,20.76
2023-05-10T14:02:18.425Z,19.48
2023-05-10T14:04:45.289Z,18.60
2023-05-10T14:07:12.221Z,17.86
2023-05-10T14:09:39.231Z,16.90
2023-05-10T14:12:06.414Z,16.12
2023-05-10T14:14:33.330Z,15.62
2023-05-10T14:17:00.755Z,14.87
2023-05-10T14:19:28.348Z,14.32
2023-05-10T14:21:55.226Z,13.79
2023-05-10T14:24:22.102Z,13.72
2023-05-10T14:26:49.093Z,12.92
2023-05-10T14:29:16.124Z,12.30
2023-05-10T14:31:43.070Z,12.86
2023-05-10T14:34:10.033Z,12.56
2023-05-10T14:36:36.878Z,12.01
2023-05-10T14:39:04.041Z,11.47
2023-05-10T14:41:31.472Z,11.33
2023-05-10T14:43:58.469Z,11.47
2023-05-10T14:46:25.378Z,11.49
2023-05-10T14:48:52.305Z,10.93
2023-05-10T14:51:22.839Z,11.33
2023-05-10T14:53:50.567Z,11.50
2023-05-10T14:56:17.446Z,11.18
2023-05-10T14:58:44.342Z,10.96
2023-05-10T15:01:12.224Z,11.09
2023-05-10T15:03:39.858Z,10.89
2023-05-10T15:06:09.870Z,10.83
2023-05-10T15:08:36.735Z,11.08
2023-05-10T15:11:04.102Z,11.06
2023-05-10T15:13:30.950Z,10.96
2023-05-10T15:15:57.912Z,10.85
2023-05-10T15:18:25.001Z,10.96
2023-05-10T15:20:51.901Z,11.36
2023-05-10T15:23:18.754Z,11.77
2023-05-10T15:25:45.801Z,11.73
2023-05-10T15:28:12.754Z,12.39
2023-05-10T15:30:39.806Z,13.40
2023-05-10T15:33:06.739Z,13.63
2023-05-10T15:35:34.484Z,13.95
2023-05-10T15:38:01.310Z,14.22
2023-05-10T15:40:28.199Z,14.51
2023-05-10T15:42:55.236Z,14.97
2023-05-10T15:45:22.085Z,15.23
2023-05-10T15:47:49.229Z,15.40
2023-05-10T15:50:16.977Z,15.97
2023-05-10T15:52:43.852Z,16.37
2023-05-10T15:55:13.612Z,15.88
2023-05-10T15:57:41.547Z,15.70
2023-05-10T16:00:09.585Z,15.62
2023-05-10T16:02:42.527Z,15.43
2023-05-10T16:05:10.001Z,15.38
2023-05-10T16:07:37.006Z,15.32
2023-05-10T16:10:06.811Z,15.43
2023-05-10T16:12:33.665Z,15.49
2023-05-10T16:15:00.601Z,15.97
2023-05-10T16:17:27.669Z,16.21
2023-05-10T16:19:54.683Z,16.19
2023-05-10T16:22:22.558Z,16.65
2023-05-10T16:24:53.685Z,16.44
2023-05-10T16:27:20.749Z,16.51
2023-05-10T16:29:48.310Z,17.22
2023-05-10T16:32:15.268Z,17.82
2023-05-10T16:34:42.105Z,18.27
2023-05-10T16:37:09.145Z,18.80
2023-05-10T16:39:36.074Z,19.20
2023-05-10T16:42:03.032Z,19.47
2023-05-10T16:44:29.982Z,19.98
2023-05-10T16:46:56.830Z,20.64
2023-05-10T16:49:26.221Z,21.12
2023-05-10T16:51:53.514Z,21.32
2023-05-10T16:54:22.119Z,21.77
2023-05-10T16:56:49.110Z,22.52
2023-05-10T16:59:16.511Z,23.14
2023-05-10T17:01:43.878Z,23.89
2023-05-10T17:04:10.906Z,24.23
2023-05-10T17:06:37.875Z,24.61
2023-05-10T17:09:05.792Z,25.09
2023-05-10T17:11:33.081Z,25.49
2023-05-10T17:14:01.544Z,26.14
2023-05-10T17:16:29.868Z,26.95
2023-05-10T17:18:56.940Z,27.38
2023-05-10T17:21:24.012Z,27.78
2023-05-10T17:23:50.995Z,28.10
2023-05-10T17:26:17.900Z,28.60
2023-05-10T17:28:44.840Z,29.02
2023-05-10T17:31:12.277Z,29.30
2023-05-10T17:33:39.412Z,29.79
2023-05-10T17:36:06.944Z,30.34
2023-05-10T17:38:33.948Z,30.75
2023-05-10T17:41:00.915Z,31.17
2023-05-10T17:43:27.749Z,31.31
2023-05-10T17:45:54.719Z,31.37
2023-05-10T17:48:22.158Z,31.41
2023-05-10T17:50:52.114Z,31.80
2023-05-10T17:53:19.501Z,31.92
2023-05-10T17:55:47.124Z,32.02
2023-05-10T17:58:13.998Z,31.99
2023-05-10T18:00:41.062Z,31.95
2023-05-10T18:03:08.198Z,31.78
2023-05-10T18:05:38.768Z,31.86
2023-05-10T18:08:06.206Z,32.18
2023-05-10T18:10:33.762Z,32.72
2023-05-10T18:13:02.537Z,32.80
2023-05-10T18:15:29.722Z,33.14
2023-05-10T18:17:56.960Z,33.44
2023-05-10T18:20:24.113Z,33.30
2023-05-10T18:22:51.263Z,33.31
2023-05-10T18:25:18.395Z,33.27
2023-05-10T18:27:45.779Z,33.20
2023-05-10T18:30:13.587Z,33.61
2023-05-10T18:32:40.866Z,33.70
2023-05-10T18:35:08.277Z,33.65
2023-05-10T18:37:35.694Z,33.14
2023-05-10T18:40:02.960Z,32.77
2023-05-10T18:42:29.839Z,32.52
2023-05-10T18:44:56.846Z,32.51
2023-05-10T18:47:24.047Z,32.38
2023-05-10T18:49:51.038Z,32.41
2023-05-10T18:52:18.094Z,32.72
2023-05-10T18:54:45.115Z,33.04
2023-05-10T18:57:12.652Z,32.95
2023-05-10T18:59:40.054Z,33.20
2023-05-10T19:02:07.031Z,32.92
2023-05-10T19:04:34.101Z,33.23
2023-05-10T19:07:02.152Z,33.60
2023-05-10T19:09:29.165Z,33.69
2023-05-10T19:11:56.725Z,33.88
2023-05-10T19:14:25.345Z,34.00
2023-05-10T19:16:54.253Z,34.21
2023-05-10T19:19:21.507Z,34.41
2023-05-10T19:21:49.638Z,34.41
2023-05-10T19:24:17.087Z,34.42
2023-05-10T19:26:44.629Z,34.63
2023-05-10T19:29:12.844Z,34.91
2023-05-10T19:31:40.231Z,35.32
2023-05-10T19:34:07.244Z,35.84
2023-05-10T19:36:34.273Z,36.07
2023-05-10T19:39:01.313Z,36.16
2023-05-10T19:41:28.788Z,36.53
2023-05-10T19:43:56.244Z,36.99
2023-05-10T19:46:23.263Z,37.27
2023-05-10T19:48:52.093Z,37.92
2023-05-10T19:51:18.932Z,38.54
2023-05-10T19:53:46.073Z,39.03
2023-05-10T19:56:13.135Z,39.20
2023-05-10T19:58:40.286Z,39.28
2023-05-10T20:01:08.109Z,39.59
2023-05-10T20:03:35.682Z,39.90
2023-05-10T20:06:02.951Z,40.38
2023-05-10T20:08:29.998Z,40.63
2023-05-10T20:11:02.589Z,40.88
2023-05-10T20:13:30.145Z,41.09
2023-05-10T20:15:57.785Z,41.42
2023-05-10T20:18:24.656Z,41.52
2023-05-10T20:20:55.563Z,41.46
2023-05-10T20:23:22.578Z,41.65
2023-05-10T20:25:49.617Z,41.78
2023-05-10T20:28:21.533Z,41.99
2023-05-10T20:30:49.436Z,42.07
2023-05-10T20:33:17.162Z,42.16
2023-05-10T20:35:44.424Z,42.48
2023-05-10T20:38:11.358Z,42.84
2023-05-10T20:40:38.205Z,43.50
2023-05-10T20:43:06.364Z,43.93
2023-05-10T20:45:33.325Z,44.11
2023-05-10T20:48:00.449Z,44.04
2023-05-10T20:50:27.519Z,43.98
2023-05-10T20:52:54.409Z,44.10
2023-05-10T20:55:21.313Z,44.34
2023-05-10T20:57:48.357Z,44.56
2023-05-10T21:00:15.966Z,44.73
2023-05-10T21:02:44.963Z,44.93
2023-05-10T21:05:11.987Z,45.15
2023-05-10T21:07:39.486Z,45.39
2023-05-10T21:10:08.219Z,45.62
2023-05-10T21:12:35.174Z,45.69
2023-05-10T21:15:03.198Z,46.09
2023-05-10T21:18:18.465Z,46.96
2023-05-10T21:20:45.348Z,46.78
2023-05-10T21:23:12.213Z,47.17
2023-05-10T21:25:39.053Z,47.23
2023-05-10T21:28:05.953Z,47.34
2023-05-10T21:30:33.683Z,47.32
2023-05-10T21:33:01.908Z,47.13
2023-05-10T21:35:29.993Z,47.04
2023-05-10T21:37:57.427Z,47.10
2023-05-10T21:40:24.342Z,47.25
2023-05-10T21:42:51.182Z,47.37
2023-05-10T21:45:19.450Z,47.42
2023-05-10T21:47:46.308Z,47.47
2023-05-10T21:50:13.312Z,47.67
2023-05-10T21:52:40.088Z,48.17
2023-05-10T21:55:08.899Z,48.61
2023-05-10T21:57:36.600Z,49.07
2023-05-10T22:00:03.857Z,49.61
2023-05-10T22:02:31.465Z,50.23
2023-05-10T22:04:58.681Z,50.58
2023-05-10T22:07:25.712Z,50.81
2023-05-10T22:09:52.673Z,50.21
2023-05-10T22:12:19.719Z,48.87
2023-05-10T22:14:49.993Z,48.02
2023-05-10T22:17:19.048Z,48.30
2023-05-10T22:19:45.976Z,49.01
2023-05-10T22:22:12.912Z,49.70
2023-05-10T22:24:39.865Z,50.58
2023-05-10T22:27:06.806Z,51.53
2023-05-10T22:29:33.754Z,52.21
2023-05-10T22:32:05.813Z,52.51
2023-05-10T22:34:33.536Z,52.74
2023-05-10T22:37:00.430Z,52.91
2023-05-10T22:39:27.465Z,52.64
2023-05-10T22:41:54.331Z,52.30
2023-05-10T22:44:21.132Z,52.05
2023-05-10T22:46:48.135Z,52.10
2023-05-10T22:49:15.036Z,52.23
2023-05-10T22:51:42.206Z,52.34
2023-05-10T22:54:09.084Z,52.28
2023-05-10T22:56:36.097Z,52.09
2023-05-10T22:59:03.048Z,51.56
2023-05-10T23:01:29.968Z,51.65
2023-05-10T23:03:56.837Z,51.47
2023-05-10T23:06:23.683Z,51.33
2023-05-10T23:08:50.546Z,51.11
2023-05-10T23:11:17.413Z,51.14
2023-05-10T23:13:44.693Z,51.26
2023-05-10T23:16:11.726Z,51.28
2023-05-10T23:18:39.653Z,51.42
2023-05-10T23:21:06.883Z,51.58
2023-05-10T23:23:34.679Z,51.81
2023-05-10T23:26:01.981Z,51.92
2023-05-10T23:28:28.851Z,52.24
2023-05-10T23:30:57.110Z,52.60
2023-05-10T23:33:24.273Z,52.74
2023-05-10T23:35:51.321Z,52.43
2023-05-10T23:38:18.112Z,52.04
2023-05-10T23:40:48.727Z,51.95
2023-05-10T23:43:16.359Z,52.08
2023-05-10T23:45:43.629Z,52.18
2023-05-10T23:48:11.121Z,52.34
2023-05-10T23:50:37.934Z,52.59
2023-05-10T23:53:04.860Z,52.86
2023-05-10T23:55:31.911Z,52.99
2023-05-10T23:57:58.763Z,53.22
